EDT,Max TemperatureF,Mean TemperatureF,Min TemperatureF,Max Dew PointF,MeanDew PointF,Min DewpointF,Max Humidity, Mean Humidity, Min Humidity, Max Sea Level PressureIn, Mean Sea Level PressureIn, Min Sea Level PressureIn, Max VisibilityMiles, Mean VisibilityMiles, Min VisibilityMiles, Max Wind SpeedMPH, Mean Wind SpeedMPH, Max Gust SpeedMPH,PrecipitationIn, CloudCover, Events, WindDirDegrees
2012-9-1,73,80,70,72,64,54,100,66,29,30.04,29.99,29.95,10,9,4,10,6,18,0.00,0,,299
2012-9-2,73,76,71,72,70,68,100,84,65,30.07,30.05,30.01,10,7,4,9,4,,0.00,6,Rain,106
2012-9-3,77,74,71,72,71,68,100,89,76,30.12,30.08,30.06,10,7,1,17,6,20,0.00,8,Rain-Thunderstorm,96
2012-9-4,81,75,69,76,72,70,100,95,79,30.07,29.98,29.87,10,5,1,20,4,33,0.00,6,Rain-Thunderstorm,157
2012-9-5,66,76,68,75,73,66,100,91,69,29.85,29.81,29.77,10,5,0,21,7,25,0.00,5,Fog-Rain-Thunderstorm,233
2012-9-6,68,70,63,71,67,62,100,93,74,29.92,29.89,29.83,10,7,0,4,0,,0.00,1,Fog,220
2012-9-7,69,76,66,71,67,65,100,85,55,29.93,29.90,29.88,10,6,0,9,3,,0.00,1,Fog,208
2012-9-8,64,75,64,75,71,62,100,89,61,29.88,29.77,29.61,10,6,0,18,6,28,0.00,6,Fog-Rain-Thunderstorm,185
2012-9-9,78,70,62,64,59,51,97,76,39,29.86,29.82,29.78,10,10,9,7,2,,0.00,3,Rain,315
2012-9-10,73,64,54,56,50,46,93,63,37,30.13,29.99,29.89,10,10,10,13,6,23,0.00,1,,320
2012-9-11,50,60,48,54,47,43,93,66,34,30.29,30.23,30.14,10,10,10,7,4,,0.00,0,,318
2012-9-12,55,63,46,56,51,44,96,72,36,30.37,30.33,30.30,10,10,10,9,1,,0.00,0,,173
2012-9-13,80,65,50,60,56,48,97,76,43,30.38,30.34,30.29,10,10,1,10,2,,0.00,0,,157
2012-9-14,73,56,48,60,51,48,100,93,55,30.27,30.26,30.23,10,8,2,0,0,,0.00,4,,-1
2012-9-15,61,60,60,60,60,59,97,96,96,30.08,30.07,30.07,10,10,10,5,2,,0.00,3,,300
2012-9-16,71,53,53,50,49,48,89,66,44,30.14,30.12,30.11,10,10,10,0,0,,0.00,4,,-1
2012-9-17,77,77,72,52,49,46,49,41,33,30.07,30.06,30.05,10,10,10,9,3,,0.00,0,,0
2012-9-18,68,73,68,72,69,66,96,85,69,29.87,29.74,29.68,10,8,1,28,18,40,0.00,8,Rain,196
2012-9-19,70,64,59,67,56,44,96,77,41,30.08,29.88,29.75,10,10,10,13,7,24,0.00,6,,294
2012-9-20,59,59,46,61,56,45,94,78,57,30.18,30.13,30.09,10,10,10,10,4,29,0.00,5,Rain,79
2012-9-21,51,62,51,60,55,50,100,80,46,30.10,30.06,30.02,10,10,9,9,2,32,0.00,1,,94
2012-9-22,64,64,48,67,60,48,100,82,60,30.01,29.89,29.79,10,10,3,14,5,20,0.00,3,Rain-Thunderstorm,194
2012-9-23,44,58,46,64,50,40,100,73,36,30.12,30.01,29.88,10,8,2,12,3,17,0.00,2,Rain,305
2012-9-24,66,54,42,47,42,37,97,75,33,30.17,30.13,30.11,10,10,10,9,3,23,0.00,0,,291
2012-9-25,61,67,59,53,50,48,81,54,40,30.18,30.16,30.14,10,10,10,14,10,22,0.00,1,,189
2012-9-26,66,69,57,65,59,54,90,72,50,30.15,30.08,30.02,10,10,10,15,7,21,0.00,4,,215
2012-9-27,73,68,62,65,63,60,100,89,62,30.19,30.13,30.06,10,6,2,8,2,,0.00,3,Rain,299
2012-9-28,66,72,66,65,65,64,94,89,66,30.14,30.02,29.92,10,7,4,7,4,,0.00,6,Rain,111
2012-9-29,53,62,55,65,58,52,100,86,64,29.94,29.92,29.88,10,8,2,9,2,16,0.00,7,Rain,313
2012-9-30,51,60,50,54,51,47,100,80,46,29.88,29.84,29.78,10,10,8,9,2,16,0.00,1,,298